createdAt,value
2023-01-15T00:01:57.797Z,3.73
2023-01-15T00:04:24.856Z,2.37
2023-01-15T00:06:52.266Z,2.10
2023-01-15T00:09:19.610Z,2.30
2023-01-15T00:11:47.026Z,2.90
2023-01-15T00:14:14.577Z,2.83
2023-01-15T00:16:41.665Z,2.40
2023-01-15T00:19:11.003Z,2.43
2023-01-15T00:21:38.259Z,1.80
2023-01-15T00:24:24.667Z,1.70
2023-01-15T00:27:10.752Z,2.00
2023-01-15T00:29:37.960Z,1.90
2023-01-15T00:32:06.488Z,1.60
2023-01-15T00:34:34.487Z,1.67
2023-01-15T00:37:02.183Z,1.77
2023-01-15T00:39:29.330Z,1.97
2023-01-15T00:41:56.727Z,1.40
2023-01-15T00:44:24.218Z,1.50
2023-01-15T00:46:51.759Z,1.90
2023-01-15T00:49:19.070Z,1.60
2023-01-15T00:51:46.399Z,1.40
2023-01-15T00:54:13.566Z,1.40
2023-01-15T00:56:41.094Z,1.40
2023-01-15T00:59:08.406Z,1.40
2023-01-15T01:01:36.059Z,1.17
2023-01-15T01:04:04.021Z,1.40
2023-01-15T01:06:31.160Z,1.30
2023-01-15T01:08:58.369Z,1.20
2023-01-15T01:11:27.144Z,1.63
2023-01-15T01:13:55.132Z,1.30
2023-01-15T01:16:36.311Z,1.20
2023-01-15T01:19:23.063Z,1.30
2023-01-15T01:21:51.380Z,1.50
2023-01-15T01:24:20.599Z,1.20
2023-01-15T01:26:48.406Z,1.33
2023-01-15T01:29:20.887Z,1.27
2023-01-15T01:31:48.502Z,1.30
2023-01-15T01:34:15.946Z,0.87
2023-01-15T01:36:43.976Z,1.17
2023-01-15T01:39:16.495Z,1.40
2023-01-15T01:41:44.350Z,1.10
2023-01-15T01:44:33.502Z,1.30
2023-01-15T01:47:24.533Z,1.10
2023-01-15T01:49:57.803Z,1.30
2023-01-15T01:52:34.003Z,1.43
2023-01-15T01:55:01.715Z,1.20
2023-01-15T01:57:29.278Z,1.10
2023-01-15T01:59:57.496Z,1.40
2023-01-15T02:02:24.696Z,1.57
2023-01-15T02:04:52.177Z,2.10
2023-01-15T02:07:19.459Z,2.57
2023-01-15T02:09:46.809Z,1.27
2023-01-15T02:12:25.489Z,1.40
2023-01-15T02:15:18.608Z,1.17
2023-01-15T02:17:57.405Z,1.00
2023-01-15T02:20:34.171Z,1.67
2023-01-15T02:23:17.033Z,1.60
2023-01-15T02:26:05.963Z,1.30
2023-01-15T02:28:38.909Z,1.40
2023-01-15T02:31:22.723Z,1.37
2023-01-15T02:34:04.085Z,1.20
2023-01-15T02:36:33.311Z,0.80
2023-01-15T02:39:02.374Z,1.00
2023-01-15T02:41:32.957Z,0.97
2023-01-15T02:44:00.413Z,1.00
2023-01-15T02:46:29.871Z,0.93
2023-01-15T02:48:57.293Z,1.10
2023-01-15T02:51:26.607Z,0.80
2023-01-15T02:53:55.792Z,1.07
2023-01-15T02:56:24.550Z,1.20
2023-01-15T02:58:53.891Z,0.90
2023-01-15T03:01:24.885Z,1.33
2023-01-15T03:04:22.784Z,1.53
2023-01-15T03:07:12.145Z,1.20
2023-01-15T03:09:39.283Z,1.43
2023-01-15T03:12:16.624Z,1.60
2023-01-15T03:14:52.954Z,0.80
2023-01-15T03:17:22.999Z,1.37
2023-01-15T03:20:12.664Z,1.10
2023-01-15T03:22:41.309Z,1.03
2023-01-15T03:25:12.373Z,0.80
2023-01-15T03:27:39.585Z,1.00
2023-01-15T03:30:15.056Z,0.87
2023-01-15T03:32:42.704Z,1.20
2023-01-15T03:35:44.897Z,1.13
2023-01-15T03:38:13.391Z,0.83
2023-01-15T03:41:09.596Z,0.70
2023-01-15T03:43:50.298Z,1.17
2023-01-15T03:47:02.676Z,1.10
2023-01-15T03:49:37.255Z,1.20
2023-01-15T03:52:25.175Z,0.90
2023-01-15T03:55:05.082Z,1.00
2023-01-15T03:57:40.692Z,0.67
2023-01-15T04:00:28.712Z,0.80
2023-01-15T04:02:56.765Z,1.00
2023-01-15T04:05:25.142Z,1.00
2023-01-15T04:07:52.878Z,0.83
2023-01-15T04:10:20.217Z,0.80
2023-01-15T04:12:48.355Z,1.27
2023-01-15T04:15:16.624Z,0.90
2023-01-15T04:17:44.138Z,1.00
2023-01-15T04:20:11.746Z,1.00
2023-01-15T04:22:39.022Z,1.30
2023-01-15T04:25:07.381Z,1.10
2023-01-15T04:27:34.808Z,1.10
2023-01-15T04:30:02.509Z,1.50
2023-01-15T04:32:30.069Z,1.80
2023-01-15T04:34:57.189Z,1.47
2023-01-15T04:37:24.592Z,1.30
2023-01-15T04:39:52.568Z,1.07
2023-01-15T04:42:38.396Z,1.30
2023-01-15T04:45:06.459Z,1.17
2023-01-15T04:47:33.588Z,1.70
2023-01-15T04:50:00.817Z,1.90
2023-01-15T04:52:28.524Z,1.20
2023-01-15T04:54:56.390Z,1.10
2023-01-15T04:57:23.538Z,1.40
2023-01-15T04:59:50.718Z,1.30
2023-01-15T05:02:18.229Z,1.70
2023-01-15T05:04:45.691Z,1.40
2023-01-15T05:07:13.569Z,1.93
2023-01-15T05:09:40.969Z,1.70
2023-01-15T05:12:09.612Z,2.40
2023-01-15T05:14:36.828Z,2.60
2023-01-15T05:17:04.105Z,2.70
2023-01-15T05:19:31.460Z,2.53
2023-01-15T05:21:58.732Z,2.23
2023-01-15T05:24:25.903Z,3.17
2023-01-15T05:26:54.151Z,2.47
2023-01-15T05:29:21.625Z,1.40
2023-01-15T05:31:48.859Z,1.00
2023-01-15T05:34:16.129Z,1.20
2023-01-15T05:36:43.621Z,2.40
2023-01-15T05:39:11.044Z,3.03
2023-01-15T05:41:50.830Z,3.07
2023-01-15T05:44:26.229Z,2.00
2023-01-15T05:46:55.420Z,1.20
2023-01-15T05:49:24.261Z,0.90
2023-01-15T05:51:51.848Z,1.10
2023-01-15T05:54:27.422Z,1.10
2023-01-15T05:56:55.318Z,0.90
2023-01-15T05:59:24.325Z,0.90
2023-01-15T06:01:52.281Z,1.20
2023-01-15T06:04:21.535Z,0.80
2023-01-15T06:06:49.694Z,0.83
2023-01-15T06:09:17.428Z,1.03
2023-01-15T06:11:44.811Z,1.03
2023-01-15T06:14:15.387Z,0.80
2023-01-15T06:16:42.651Z,1.43
2023-01-15T06:19:11.381Z,2.30
2023-01-15T06:21:38.650Z,1.80
2023-01-15T06:24:06.596Z,1.40
2023-01-15T06:26:34.032Z,2.50
2023-01-15T06:29:01.383Z,1.63
2023-01-15T06:31:28.944Z,1.40
2023-01-15T06:33:56.582Z,1.50
2023-01-15T06:36:25.256Z,3.27
2023-01-15T06:38:52.472Z,2.33
2023-01-15T06:41:42.812Z,1.13
2023-01-15T06:44:31.857Z,2.47
2023-01-15T06:47:18.344Z,4.13
2023-01-15T06:49:45.900Z,2.30
2023-01-15T06:52:13.195Z,1.40
2023-01-15T06:54:40.607Z,1.20
2023-01-15T06:57:08.003Z,2.30
2023-01-15T06:59:35.411Z,6.33
2023-01-15T07:02:02.769Z,3.30
2023-01-15T07:04:30.408Z,2.73
2023-01-15T07:06:57.780Z,3.30
2023-01-15T07:09:24.989Z,2.93
2023-01-15T07:11:52.648Z,5.30
2023-01-15T07:14:24.413Z,2.33
2023-01-15T07:16:51.687Z,3.60
2023-01-15T07:19:19.500Z,6.27
2023-01-15T07:21:47.161Z,1.90
2023-01-15T07:24:14.569Z,3.03
2023-01-15T07:26:42.841Z,4.27
2023-01-15T07:29:10.472Z,2.90
2023-01-15T07:31:38.021Z,2.50
2023-01-15T07:34:05.761Z,4.10
2023-01-15T07:36:33.235Z,1.47
2023-01-15T07:39:00.642Z,2.73
2023-01-15T07:41:46.568Z,5.37
2023-01-15T07:44:32.691Z,2.70
2023-01-15T07:47:18.580Z,31.23
2023-01-15T07:49:46.201Z,21.83
2023-01-15T07:52:14.879Z,5.10
2023-01-15T07:54:42.424Z,6.73
2023-01-15T07:57:10.446Z,4.00
2023-01-15T07:59:37.780Z,7.07
2023-01-15T08:02:05.214Z,7.50
2023-01-15T08:04:32.743Z,3.03
2023-01-15T08:07:01.840Z,2.93
2023-01-15T08:09:29.173Z,3.77
2023-01-15T08:12:18.195Z,3.67
2023-01-15T08:15:04.085Z,3.73
2023-01-15T08:17:35.387Z,2.70
2023-01-15T08:20:04.386Z,1.57
2023-01-15T08:22:31.814Z,2.23
2023-01-15T08:24:59.118Z,1.60
2023-01-15T08:27:26.571Z,8.90
2023-01-15T08:29:54.004Z,11.03
2023-01-15T08:32:21.477Z,10.53
2023-01-15T08:34:48.948Z,7.47
2023-01-15T08:37:16.336Z,5.27
2023-01-15T08:39:43.655Z,3.60
2023-01-15T08:42:11.426Z,3.90
2023-01-15T08:44:38.772Z,3.43
2023-01-15T08:47:06.272Z,6.30
2023-01-15T08:49:33.705Z,4.73
2023-01-15T08:52:01.530Z,10.90
2023-01-15T08:54:28.954Z,5.83
2023-01-15T08:56:56.448Z,3.10
2023-01-15T08:59:23.727Z,3.30
2023-01-15T09:01:51.075Z,3.60
2023-01-15T09:04:20.680Z,3.30
2023-01-15T09:06:48.434Z,3.13
2023-01-15T09:09:15.874Z,2.40
2023-01-15T09:11:45.395Z,2.63
2023-01-15T09:14:57.942Z,4.73
2023-01-15T09:17:02.213Z,2.90
2023-01-15T09:19:29.613Z,2.97
2023-01-15T09:21:57.284Z,3.13
2023-01-15T09:24:24.560Z,2.30
2023-01-15T09:26:53.687Z,2.60
2023-01-15T09:29:21.156Z,2.40
2023-01-15T09:31:48.731Z,2.10
2023-01-15T09:34:16.091Z,1.90
2023-01-15T09:36:44.225Z,3.47
2023-01-15T09:39:12.083Z,4.47
2023-01-15T09:42:10.375Z,3.83
2023-01-15T09:45:03.778Z,3.50
2023-01-15T09:47:51.851Z,3.97
2023-01-15T09:50:46.799Z,3.80
2023-01-15T09:53:36.046Z,4.13
2023-01-15T09:56:03.549Z,5.03
2023-01-15T09:58:38.674Z,5.70
2023-01-15T10:01:06.077Z,5.50
2023-01-15T10:03:52.460Z,8.67
2023-01-15T10:06:46.253Z,7.07
2023-01-15T10:09:20.644Z,14.20
2023-01-15T10:12:11.251Z,10.67
2023-01-15T10:14:46.034Z,11.60
2023-01-15T10:17:30.217Z,5.63
2023-01-15T10:19:57.603Z,3.43
2023-01-15T10:22:28.440Z,5.20
2023-01-15T10:24:59.153Z,8.93
2023-01-15T10:27:28.558Z,15.93
2023-01-15T10:30:25.306Z,11.57
2023-01-15T10:33:02.409Z,4.07
2023-01-15T10:36:04.213Z,2.70
2023-01-15T10:38:40.238Z,1.73
2023-01-15T10:41:32.472Z,2.73
2023-01-15T10:44:11.161Z,1.30
2023-01-15T10:46:40.537Z,1.30
2023-01-15T10:49:15.476Z,1.10
2023-01-15T10:51:47.205Z,1.73
2023-01-15T10:54:21.511Z,1.17
2023-01-15T10:57:02.774Z,1.10
2023-01-15T10:59:59.677Z,1.80
2023-01-15T11:02:41.613Z,1.30
2023-01-15T11:05:21.737Z,1.10
2023-01-15T11:08:24.676Z,0.80
2023-01-15T11:10:41.631Z,1.10
2023-01-15T11:13:41.841Z,1.23
2023-01-15T11:16:35.004Z,1.60
2023-01-15T11:19:25.085Z,1.30
2023-01-15T11:21:52.804Z,1.60
2023-01-15T11:24:23.559Z,1.50
2023-01-15T11:26:52.250Z,1.60
2023-01-15T11:29:37.593Z,2.10
2023-01-15T11:32:04.946Z,1.47
2023-01-15T11:34:32.320Z,1.90
2023-01-15T11:37:06.140Z,2.00
2023-01-15T11:39:33.650Z,1.90
2023-01-15T11:42:21.352Z,2.30
2023-01-15T11:45:14.959Z,1.70
2023-01-15T11:48:13.969Z,1.97
2023-01-15T11:50:49.537Z,1.63
2023-01-15T11:53:22.536Z,1.20
2023-01-15T11:56:06.935Z,2.00
2023-01-15T11:58:41.191Z,1.43
2023-01-15T12:01:08.394Z,1.20
2023-01-15T12:03:35.809Z,1.40
2023-01-15T12:06:06.798Z,1.20
2023-01-15T12:09:10.968Z,1.43
2023-01-15T12:11:59.939Z,1.33
2023-01-15T12:14:50.314Z,1.40
2023-01-15T12:17:48.579Z,1.50
2023-01-15T12:20:34.011Z,1.73
2023-01-15T12:23:40.276Z,1.50
2023-01-15T12:26:29.408Z,1.53
2023-01-15T12:29:12.696Z,1.40
2023-01-15T12:31:47.245Z,1.50
2023-01-15T12:34:28.815Z,1.70
2023-01-15T12:37:11.266Z,2.20
2023-01-15T12:39:46.398Z,1.77
2023-01-15T12:42:35.337Z,1.87
2023-01-15T12:45:16.084Z,1.63
2023-01-15T12:48:06.303Z,2.03
2023-01-15T12:50:40.055Z,1.90
2023-01-15T12:53:38.392Z,1.40
2023-01-15T12:56:29.883Z,1.80
2023-01-15T12:59:19.571Z,2.07
2023-01-15T13:01:56.269Z,1.63
2023-01-15T13:04:26.396Z,2.90
2023-01-15T13:06:57.456Z,2.60
2023-01-15T13:09:35.593Z,2.50
2023-01-15T13:12:03.040Z,2.10
2023-01-15T13:14:30.710Z,2.10
2023-01-15T13:17:49.710Z,2.23
2023-01-15T13:20:28.999Z,2.27
2023-01-15T13:23:09.286Z,1.80
2023-01-15T13:25:55.208Z,1.70
2023-01-15T13:29:13.388Z,1.30
2023-01-15T13:31:49.520Z,1.60
2023-01-15T13:34:24.281Z,1.80
2023-01-15T13:36:51.425Z,1.90
2023-01-15T13:39:21.718Z,1.70
2023-01-15T13:42:11.780Z,1.40
2023-01-15T13:44:45.349Z,1.40
2023-01-15T13:47:14.713Z,1.27
2023-01-15T13:49:47.477Z,1.07
2023-01-15T13:52:23.119Z,1.90
2023-01-15T13:54:50.773Z,1.50
2023-01-15T13:57:34.741Z,1.10
2023-01-15T14:00:06.397Z,1.00
2023-01-15T14:02:38.153Z,1.00
2023-01-15T14:05:27.696Z,1.03
2023-01-15T14:07:55.054Z,0.90
2023-01-15T14:10:35.148Z,0.90
2023-01-15T14:13:20.970Z,0.83
2023-01-15T14:16:09.812Z,1.00
2023-01-15T14:18:59.642Z,1.07
2023-01-15T14:21:40.988Z,1.07
2023-01-15T14:24:25.387Z,0.97
2023-01-15T14:27:24.950Z,0.90
2023-01-15T14:30:29.658Z,0.40
2023-01-15T14:33:11.985Z,0.80
2023-01-15T14:35:44.263Z,0.80
2023-01-15T14:38:15.414Z,1.53
2023-01-15T14:40:53.824Z,0.80
2023-01-15T14:43:21.132Z,0.83
2023-01-15T14:45:50.337Z,1.20
2023-01-15T14:48:29.965Z,1.33
2023-01-15T14:51:24.248Z,1.10
2023-01-15T14:54:25.346Z,1.20
2023-01-15T14:56:57.511Z,1.10
2023-01-15T14:59:29.664Z,0.90
2023-01-15T15:02:02.350Z,0.80
2023-01-15T15:04:46.285Z,0.53
2023-01-15T15:07:23.212Z,0.77
2023-01-15T15:10:26.699Z,1.10
2023-01-15T15:13:35.410Z,1.20
2023-01-15T15:16:16.978Z,1.00
2023-01-15T15:19:12.728Z,0.60
2023-01-15T15:21:43.548Z,0.63
2023-01-15T15:24:21.697Z,1.10
2023-01-15T15:26:49.473Z,1.00
2023-01-15T15:29:18.650Z,1.40
2023-01-15T15:31:57.390Z,0.83
2023-01-15T15:34:34.936Z,0.70
2023-01-15T15:37:14.743Z,0.90
2023-01-15T15:39:45.937Z,1.00
2023-01-15T15:42:44.616Z,1.00
2023-01-15T15:45:50.082Z,1.67
2023-01-15T15:48:39.996Z,1.30
2023-01-15T15:51:52.896Z,1.53
2023-01-15T15:54:27.131Z,1.87
2023-01-15T15:57:15.338Z,0.90
2023-01-15T15:59:51.096Z,1.97
2023-01-15T16:02:39.297Z,1.00
2023-01-15T16:05:31.264Z,1.03
2023-01-15T16:08:16.379Z,0.90
2023-01-15T16:10:43.932Z,0.97
2023-01-15T16:13:14.821Z,1.00
2023-01-15T16:15:42.156Z,0.90
2023-01-15T16:18:34.423Z,0.90
2023-01-15T16:21:02.267Z,1.00
2023-01-15T16:23:30.347Z,1.13
2023-01-15T16:25:59.769Z,1.10
2023-01-15T16:28:30.000Z,1.10
2023-01-15T16:31:01.225Z,0.90
2023-01-15T16:33:28.575Z,1.23
2023-01-15T16:35:59.704Z,1.33
2023-01-15T16:38:27.393Z,1.30
2023-01-15T16:40:54.823Z,2.10
2023-01-15T16:43:23.343Z,1.30
2023-01-15T16:45:56.879Z,1.23
2023-01-15T16:48:30.297Z,2.13
2023-01-15T16:50:58.916Z,2.50
2023-01-15T16:53:31.850Z,1.40
2023-01-15T16:56:01.718Z,1.57
2023-01-15T16:58:37.290Z,1.20
2023-01-15T17:01:35.253Z,1.03
2023-01-15T17:04:03.305Z,1.13
2023-01-15T17:06:30.933Z,1.10
2023-01-15T17:08:59.297Z,1.37
2023-01-15T17:11:30.478Z,1.27
2023-01-15T17:14:27.175Z,1.30
2023-01-15T17:17:22.495Z,1.20
2023-01-15T17:19:53.923Z,1.40
2023-01-15T17:22:31.415Z,1.03
2023-01-15T17:25:00.202Z,1.70
2023-01-15T17:27:29.227Z,1.40
2023-01-15T17:29:56.926Z,1.50
2023-01-15T17:32:33.546Z,1.30
2023-01-15T17:35:00.799Z,1.10
2023-01-15T17:37:28.220Z,1.00
2023-01-15T17:39:55.681Z,1.17
2023-01-15T17:42:22.955Z,1.00
2023-01-15T17:44:50.261Z,1.33
2023-01-15T17:47:17.778Z,1.30
2023-01-15T17:49:45.184Z,2.17
2023-01-15T17:52:17.340Z,2.13
2023-01-15T17:55:03.438Z,2.20
2023-01-15T17:57:49.442Z,1.50
2023-01-15T18:00:36.050Z,1.70
2023-01-15T18:03:21.826Z,1.53
2023-01-15T18:05:49.500Z,2.50
2023-01-15T18:08:19.067Z,1.60
2023-01-15T18:10:46.456Z,1.40
2023-01-15T18:13:13.838Z,1.30
2023-01-15T18:15:41.179Z,1.33
2023-01-15T18:18:08.596Z,2.23
2023-01-15T18:20:36.465Z,1.77
2023-01-15T18:23:03.823Z,2.20
2023-01-15T18:25:31.186Z,1.50
2023-01-15T18:27:58.825Z,1.37
2023-01-15T18:30:26.107Z,1.40
2023-01-15T18:32:53.407Z,1.20
2023-01-15T18:35:22.830Z,1.57
2023-01-15T18:37:49.955Z,1.20
2023-01-15T18:40:17.647Z,1.40
2023-01-15T18:43:03.855Z,1.13
2023-01-15T18:45:49.859Z,1.03
2023-01-15T18:48:17.481Z,1.43
2023-01-15T18:50:45.049Z,1.50
2023-01-15T18:53:13.359Z,1.40
2023-01-15T18:55:40.940Z,1.13
2023-01-15T18:58:08.429Z,1.60
2023-01-15T19:00:35.828Z,1.50
2023-01-15T19:03:04.152Z,1.40
2023-01-15T19:05:31.409Z,1.80
2023-01-15T19:07:59.011Z,1.70
2023-01-15T19:10:26.198Z,1.80
2023-01-15T19:12:53.408Z,1.60
2023-01-15T19:15:39.342Z,1.50
2023-01-15T19:18:25.356Z,1.40
2023-01-15T19:20:52.872Z,1.40
2023-01-15T19:23:20.753Z,1.17
2023-01-15T19:25:51.030Z,1.70
2023-01-15T19:28:21.036Z,2.17
2023-01-15T19:31:07.430Z,1.40
2023-01-15T19:33:35.010Z,1.70
2023-01-15T19:36:02.584Z,1.20
2023-01-15T19:38:30.168Z,1.47
2023-01-15T19:41:17.811Z,1.60
2023-01-15T19:44:03.833Z,1.70
2023-01-15T19:46:49.921Z,1.20
2023-01-15T19:49:37.345Z,1.80
2023-01-15T19:52:23.359Z,1.60
2023-01-15T19:54:56.623Z,1.77
2023-01-15T19:57:24.295Z,1.30
2023-01-15T19:59:51.681Z,1.63
2023-01-15T20:02:18.938Z,1.27
2023-01-15T20:04:46.564Z,1.67
2023-01-15T20:07:13.865Z,1.57
2023-01-15T20:09:42.140Z,1.90
2023-01-15T20:12:29.672Z,2.00
2023-01-15T20:14:57.493Z,2.33
2023-01-15T20:17:24.906Z,1.70
2023-01-15T20:19:52.303Z,2.80
2023-01-15T20:22:19.637Z,2.23
2023-01-15T20:24:46.951Z,2.27
2023-01-15T20:27:14.454Z,1.50
2023-01-15T20:29:44.804Z,1.10
2023-01-15T20:32:12.143Z,1.40
2023-01-15T20:34:40.472Z,1.47
2023-01-15T20:37:07.899Z,1.23
2023-01-15T20:39:35.305Z,1.73
2023-01-15T20:42:21.781Z,2.10
2023-01-15T20:44:55.498Z,2.00
2023-01-15T20:47:45.438Z,2.07
2023-01-15T20:50:15.893Z,2.00
2023-01-15T20:52:47.867Z,2.20
2023-01-15T20:55:15.677Z,2.40
2023-01-15T20:57:43.097Z,2.23
2023-01-15T21:00:18.989Z,3.10
2023-01-15T21:02:46.503Z,2.93
2023-01-15T21:05:13.983Z,3.50
2023-01-15T21:07:41.613Z,3.07
2023-01-15T21:10:11.095Z,2.67
2023-01-15T21:12:38.336Z,3.20
2023-01-15T21:15:06.458Z,2.67
2023-01-15T21:17:33.796Z,2.97
2023-01-15T21:20:01.228Z,2.67
2023-01-15T21:22:31.224Z,2.50
2023-01-15T21:24:59.079Z,2.87
2023-01-15T21:27:26.397Z,3.00
2023-01-15T21:29:53.897Z,3.10
2023-01-15T21:32:21.114Z,3.60
2023-01-15T21:34:48.506Z,3.37
2023-01-15T21:37:16.669Z,2.87
2023-01-15T21:39:43.909Z,2.80
2023-01-15T21:42:37.465Z,2.90
2023-01-15T21:45:05.649Z,2.73
2023-01-15T21:47:33.023Z,3.07
2023-01-15T21:50:00.450Z,3.73
2023-01-15T21:52:29.621Z,3.10
2023-01-15T21:54:57.047Z,3.27
2023-01-15T21:57:24.696Z,2.57
2023-01-15T21:59:52.056Z,2.70
2023-01-15T22:02:22.089Z,2.60
2023-01-15T22:04:49.665Z,2.90
2023-01-15T22:07:18.152Z,3.10
2023-01-15T22:09:45.581Z,3.03
2023-01-15T22:12:13.698Z,3.17
2023-01-15T22:14:41.019Z,2.90
2023-01-15T22:17:08.356Z,3.43
2023-01-15T22:19:35.788Z,2.97
2023-01-15T22:22:08.694Z,2.70
2023-01-15T22:24:37.400Z,3.00
2023-01-15T22:27:06.672Z,2.93
2023-01-15T22:29:38.521Z,3.30
2023-01-15T22:32:06.935Z,3.07
2023-01-15T22:34:34.155Z,2.90
2023-01-15T22:37:01.415Z,2.97
2023-01-15T22:39:28.864Z,3.60
2023-01-15T22:42:16.317Z,4.60
2023-01-15T22:44:45.141Z,3.30
2023-01-15T22:47:12.789Z,3.30
2023-01-15T22:49:40.238Z,3.57
2023-01-15T22:52:07.613Z,3.33
2023-01-15T22:54:35.297Z,3.33
2023-01-15T22:57:02.941Z,3.37
2023-01-15T22:59:30.297Z,3.10
2023-01-15T23:01:57.925Z,2.90
2023-01-15T23:04:25.709Z,3.60
2023-01-15T23:06:53.205Z,3.17
2023-01-15T23:09:21.911Z,3.30
2023-01-15T23:11:51.779Z,3.40
2023-01-15T23:14:20.629Z,3.40
2023-01-15T23:16:48.015Z,3.43
2023-01-15T23:19:15.385Z,3.20
2023-01-15T23:21:43.047Z,3.20
2023-01-15T23:24:10.706Z,3.93
2023-01-15T23:26:38.745Z,3.50
2023-01-15T23:29:06.306Z,3.53
2023-01-15T23:31:33.754Z,3.50
2023-01-15T23:34:01.167Z,3.63
2023-01-15T23:36:28.855Z,3.97
2023-01-15T23:38:56.231Z,3.50
2023-01-15T23:41:44.388Z,3.80
2023-01-15T23:44:34.758Z,3.67
2023-01-15T23:47:02.417Z,3.90
2023-01-15T23:49:29.885Z,4.40
2023-01-15T23:51:57.378Z,3.97
2023-01-15T23:54:30.520Z,4.50
2023-01-15T23:56:58.438Z,4.40
2023-01-15T23:59:25.954Z,4.20
